createdAt,value
2018-08-10T00:00:37.723Z,34.2
2018-08-10T00:01:39.328Z,34.2
2018-08-10T00:02:40.926Z,34.2
2018-08-10T00:03:41.866Z,33.7
2018-08-10T00:04:43.457Z,33.7
2018-08-10T00:05:44.728Z,34.2
2018-08-10T00:06:46.322Z,33.7
2018-08-10T00:07:47.921Z,34.7
2018-08-10T00:08:49.364Z,34.2
2018-08-10T00:09:50.842Z,34.7
2018-08-10T00:10:52.296Z,33.7
2018-08-10T00:11:53.900Z,33.7
2018-08-10T00:12:55.340Z,34.7
2018-08-10T00:13:56.955Z,34.2
2018-08-10T00:14:58.540Z,34.7
2018-08-10T00:16:00.167Z,34.2
2018-08-10T00:17:01.497Z,33.7
2018-08-10T00:18:03.110Z,33.7
2018-08-10T00:19:04.554Z,32.7
2018-08-10T00:20:06.172Z,33.7
2018-08-10T00:21:07.445Z,33.2
2018-08-10T00:22:09.064Z,33.2
2018-08-10T00:23:10.677Z,33.2
2018-08-10T00:24:12.341Z,33.7
2018-08-10T00:25:13.790Z,33.2
2018-08-10T00:26:15.390Z,32.7
2018-08-10T00:27:16.657Z,33.2
2018-08-10T00:28:18.267Z,33.2
2018-08-10T00:29:19.864Z,32.7
2018-08-10T00:30:21.314Z,32.7
2018-08-10T00:31:22.769Z,32.7
2018-08-10T00:32:24.210Z,33.2
2018-08-10T00:33:25.808Z,33.2
2018-08-10T00:34:27.242Z,32.7
2018-08-10T00:35:28.511Z,33.2
2018-08-10T00:36:29.959Z,32.7
2018-08-10T00:37:31.567Z,33.2
2018-08-10T00:38:33.001Z,33.2
2018-08-10T00:39:34.617Z,32.7
2018-08-10T00:40:36.069Z,33.7
2018-08-10T00:41:37.662Z,32.7
2018-08-10T00:42:39.277Z,33.2
2018-08-10T00:43:40.907Z,33.2
2018-08-10T00:44:42.509Z,33.7
2018-08-10T00:45:44.150Z,33.2
2018-08-10T00:46:45.608Z,32.7
2018-08-10T00:47:47.208Z,33.2
2018-08-10T00:48:48.652Z,32.7
2018-08-10T00:49:50.084Z,33.2
2018-08-10T00:50:51.695Z,33.2
2018-08-10T00:51:53.291Z,32.7
2018-08-10T00:52:54.888Z,32.3
2018-08-10T00:53:56.321Z,33.7
2018-08-10T00:54:57.986Z,33.7
2018-08-10T00:55:59.588Z,33.7
2018-08-10T00:57:01.193Z,32.7
2018-08-10T00:58:02.658Z,32.3
2018-08-10T00:59:04.255Z,32.7
2018-08-10T01:00:05.699Z,32.3
2018-08-10T01:01:07.138Z,32.3
2018-08-10T01:02:08.754Z,32.7
2018-08-10T01:03:10.365Z,33.7
2018-08-10T01:04:11.957Z,33.2
2018-08-10T01:05:13.547Z,33.2
2018-08-10T01:06:14.989Z,33.2
2018-08-10T01:07:16.425Z,33.2
2018-08-10T01:08:17.702Z,31.3
2018-08-10T01:09:19.305Z,29.8
2018-08-10T01:10:20.893Z,28.8
2018-08-10T01:11:22.500Z,28.8
2018-08-10T01:12:23.934Z,29.8
2018-08-10T01:13:25.896Z,30.3
2018-08-10T01:14:27.927Z,31.8
2018-08-10T01:15:29.380Z,33.2
2018-08-10T01:16:31.001Z,35.2
2018-08-10T01:17:32.610Z,35.7
2018-08-10T01:18:34.219Z,36.2
2018-08-10T01:19:35.838Z,36.2
2018-08-10T01:20:37.450Z,36.7
2018-08-10T01:21:38.897Z,37.1
2018-08-10T01:22:40.530Z,38.6
2018-08-10T01:23:42.112Z,38.6
2018-08-10T01:24:43.712Z,39.1
2018-08-10T01:25:45.144Z,39.1
2018-08-10T01:26:46.756Z,39.6
2018-08-10T01:27:48.348Z,39.6
2018-08-10T01:28:50.004Z,40.6
2018-08-10T01:29:52.160Z,40.6
2018-08-10T01:30:53.770Z,41.1
2018-08-10T01:31:55.196Z,41.5
2018-08-10T01:32:56.780Z,41.5
2018-08-10T01:33:58.282Z,41.1
2018-08-10T01:35:00.125Z,41.5
2018-08-10T01:36:01.726Z,41.1
2018-08-10T01:37:03.169Z,42
2018-08-10T01:38:04.607Z,41.5
2018-08-10T01:39:06.216Z,41.5
2018-08-10T01:40:07.815Z,42
2018-08-10T01:41:09.256Z,41.5
2018-08-10T01:42:10.696Z,42
2018-08-10T01:43:12.299Z,42
2018-08-10T01:44:13.578Z,41.1
2018-08-10T01:45:15.219Z,41.1
2018-08-10T01:46:16.830Z,42
2018-08-10T01:47:18.433Z,41.5
2018-08-10T01:48:20.021Z,42
2018-08-10T01:49:21.469Z,42
2018-08-10T01:50:23.074Z,42
2018-08-10T01:51:24.660Z,42
2018-08-10T01:52:26.090Z,42.5
2018-08-10T01:53:27.558Z,42.5
2018-08-10T01:54:29.160Z,41.5
2018-08-10T01:55:30.795Z,42
2018-08-10T01:56:32.073Z,41.5
2018-08-10T01:57:33.539Z,41.5
2018-08-10T01:58:35.120Z,42
2018-08-10T01:59:36.733Z,42
2018-08-10T02:00:38.358Z,41.5
2018-08-10T02:01:39.998Z,41.5
2018-08-10T02:02:41.621Z,42.5
2018-08-10T02:03:43.061Z,42
2018-08-10T02:04:44.667Z,42
2018-08-10T02:05:46.272Z,42
2018-08-10T02:06:47.870Z,42
2018-08-10T02:07:49.281Z,41.5
2018-08-10T02:08:50.866Z,41.1
2018-08-10T02:09:52.486Z,42
2018-08-10T02:10:53.768Z,42
2018-08-10T02:11:55.358Z,41.5
2018-08-10T02:12:56.961Z,41.5
2018-08-10T02:13:58.561Z,42
2018-08-10T02:15:00.165Z,41.5
2018-08-10T02:16:01.773Z,42
2018-08-10T02:17:03.219Z,41.1
2018-08-10T02:18:04.476Z,41.5
2018-08-10T02:19:05.916Z,42
2018-08-10T02:20:07.180Z,41.5
2018-08-10T02:21:08.625Z,41.1
2018-08-10T02:22:10.081Z,41.1
2018-08-10T02:23:11.685Z,41.5
2018-08-10T02:24:12.956Z,41.1
2018-08-10T02:25:14.557Z,41.5
2018-08-10T02:26:15.997Z,41.1
2018-08-10T02:27:17.481Z,41.5
2018-08-10T02:28:19.069Z,41.5
2018-08-10T02:29:20.325Z,41.1
2018-08-10T02:30:21.766Z,40.6
2018-08-10T02:31:23.036Z,41.1
2018-08-10T02:32:24.477Z,41.1
2018-08-10T02:33:26.095Z,41.1
2018-08-10T02:34:27.544Z,41.1
2018-08-10T02:35:29.145Z,40.6
2018-08-10T02:36:30.588Z,41.1
2018-08-10T02:37:32.062Z,41.1
2018-08-10T02:38:33.561Z,41.1
2018-08-10T02:39:35.014Z,40.6
2018-08-10T02:40:36.628Z,40.6
2018-08-10T02:41:38.082Z,41.1
2018-08-10T02:42:39.513Z,40.6
2018-08-10T02:43:40.940Z,40.6
2018-08-10T02:44:42.546Z,41.1
2018-08-10T02:45:43.829Z,40.6
2018-08-10T02:46:45.277Z,40.6
2018-08-10T02:47:46.562Z,41.1
2018-08-10T02:48:47.986Z,40.1
2018-08-10T02:49:49.269Z,41.1
2018-08-10T02:50:50.877Z,41.1
2018-08-10T02:51:52.336Z,40.1
2018-08-10T02:52:53.945Z,40.6
2018-08-10T02:53:55.392Z,40.1
2018-08-10T02:54:56.994Z,40.6
2018-08-10T02:55:58.597Z,40.6
2018-08-10T02:57:00.241Z,41.1
2018-08-10T02:58:01.672Z,40.1
2018-08-10T02:59:03.326Z,39.6
2018-08-10T03:00:04.962Z,40.1
2018-08-10T03:01:06.613Z,39.6
2018-08-10T03:02:08.215Z,39.6
2018-08-10T03:03:09.487Z,40.1
2018-08-10T03:04:11.097Z,40.6
2018-08-10T03:05:12.707Z,39.1
2018-08-10T03:06:14.163Z,40.1
2018-08-10T03:07:15.790Z,41.1
2018-08-10T03:08:17.450Z,40.6
2018-08-10T03:09:19.130Z,40.6
2018-08-10T03:10:20.764Z,40.6
2018-08-10T03:11:22.388Z,40.1
2018-08-10T03:12:23.977Z,40.1
2018-08-10T03:13:25.417Z,40.6
2018-08-10T03:14:26.693Z,39.6
2018-08-10T03:15:28.127Z,40.1
2018-08-10T03:16:29.564Z,39.6
2018-08-10T03:17:31.187Z,39.6
2018-08-10T03:18:32.445Z,40.6
2018-08-10T03:19:33.759Z,40.1
2018-08-10T03:20:35.205Z,40.1
2018-08-10T03:21:36.814Z,39.6
2018-08-10T03:22:38.424Z,39.1
2018-08-10T03:23:39.920Z,40.6
2018-08-10T03:24:41.190Z,39.6
2018-08-10T03:25:43.336Z,40.1
2018-08-10T03:26:44.762Z,40.6
2018-08-10T03:27:46.371Z,40.6
2018-08-10T03:28:47.970Z,40.1
2018-08-10T03:30:04.129Z,40.6
2018-08-10T03:31:05.421Z,39.6
2018-08-10T03:32:07.047Z,40.6
2018-08-10T03:33:08.670Z,40.6
2018-08-10T03:34:10.300Z,40.1
2018-08-10T03:35:11.579Z,40.1
2018-08-10T03:36:12.866Z,40.1
2018-08-10T03:37:14.130Z,40.1
2018-08-10T03:38:15.763Z,41.1
2018-08-10T03:39:17.186Z,40.6
2018-08-10T03:40:18.781Z,40.6
2018-08-10T03:41:20.384Z,41.5
2018-08-10T03:42:21.831Z,41.5
2018-08-10T03:43:23.429Z,41.1
2018-08-10T03:44:25.022Z,42
2018-08-10T03:45:26.612Z,41.5
2018-08-10T03:46:28.046Z,42
2018-08-10T03:47:29.652Z,42.5
2018-08-10T03:48:31.258Z,41.5
2018-08-10T03:49:32.525Z,42
2018-08-10T03:50:34.125Z,42.5
2018-08-10T03:51:35.720Z,42
2018-08-10T03:52:37.176Z,41.5
2018-08-10T03:53:38.779Z,42
2018-08-10T03:54:40.375Z,42
2018-08-10T03:55:41.976Z,43
2018-08-10T03:56:43.613Z,42
2018-08-10T03:57:45.204Z,41.5
2018-08-10T03:58:46.632Z,42
2018-08-10T03:59:48.056Z,42
2018-08-10T04:00:49.490Z,41.5
2018-08-10T04:01:51.082Z,42
2018-08-10T04:02:52.346Z,43
2018-08-10T04:03:53.947Z,42
2018-08-10T04:04:55.387Z,41.5
2018-08-10T04:05:56.997Z,41.5
2018-08-10T04:06:58.489Z,41.5
2018-08-10T04:08:00.147Z,41.5
2018-08-10T04:09:01.588Z,42
2018-08-10T04:10:03.210Z,42.5
2018-08-10T04:11:04.656Z,41.5
2018-08-10T04:12:06.100Z,42
2018-08-10T04:13:07.559Z,42
2018-08-10T04:14:08.846Z,41.5
2018-08-10T04:15:10.481Z,42.5
2018-08-10T04:16:12.088Z,42
2018-08-10T04:17:13.687Z,41.1
2018-08-10T04:18:15.288Z,41.5
2018-08-10T04:19:16.748Z,42
2018-08-10T04:20:18.335Z,42
2018-08-10T04:21:19.767Z,42
2018-08-10T04:22:21.380Z,41.1
2018-08-10T04:23:22.809Z,41.5
2018-08-10T04:24:24.394Z,41.5
2018-08-10T04:25:26.010Z,41.1
2018-08-10T04:26:27.283Z,41.5
2018-08-10T04:27:28.876Z,41.5
2018-08-10T04:28:30.310Z,41.1
2018-08-10T04:29:31.839Z,41.1
2018-08-10T04:30:33.773Z,42
2018-08-10T04:31:35.460Z,41.1
2018-08-10T04:32:37.117Z,41.1
2018-08-10T04:33:38.746Z,41.1
2018-08-10T04:34:40.189Z,41.5
2018-08-10T04:35:41.624Z,41.1
2018-08-10T04:36:42.903Z,42
2018-08-10T04:37:44.182Z,41.1
2018-08-10T04:38:45.477Z,41.1
2018-08-10T04:39:47.095Z,40.6
2018-08-10T04:40:48.356Z,41.1
2018-08-10T04:41:49.975Z,40.6
2018-08-10T04:42:51.416Z,41.1
2018-08-10T04:43:53.023Z,41.1
2018-08-10T04:44:54.462Z,41.1
2018-08-10T04:45:55.896Z,41.1
2018-08-10T04:46:57.502Z,41.5
2018-08-10T04:47:59.125Z,40.6
2018-08-10T04:49:00.572Z,41.1
2018-08-10T04:50:02.398Z,41.5
2018-08-10T04:51:03.995Z,40.6
2018-08-10T04:52:05.597Z,40.6
2018-08-10T04:53:07.205Z,40.6
2018-08-10T04:54:08.843Z,40.6
2018-08-10T04:55:10.909Z,40.6
2018-08-10T04:56:12.864Z,40.6
2018-08-10T04:57:14.316Z,40.1
2018-08-10T04:58:15.919Z,40.6
2018-08-10T04:59:17.377Z,41.1
2018-08-10T05:00:18.993Z,40.1
2018-08-10T05:01:20.619Z,41.1
2018-08-10T05:02:22.268Z,40.6
2018-08-10T05:03:23.703Z,40.6
2018-08-10T05:04:25.326Z,39.6
2018-08-10T05:05:26.743Z,40.1
2018-08-10T05:06:28.358Z,40.6
2018-08-10T05:07:29.795Z,40.6
2018-08-10T05:08:31.081Z,40.6
2018-08-10T05:09:32.679Z,40.1
2018-08-10T05:10:33.960Z,40.6
2018-08-10T05:11:35.452Z,40.6
2018-08-10T05:12:37.057Z,40.6
2018-08-10T05:13:38.666Z,40.6
2018-08-10T05:14:40.269Z,40.6
2018-08-10T05:15:41.679Z,39.6
2018-08-10T05:16:43.363Z,40.1
2018-08-10T05:17:44.649Z,40.6
2018-08-10T05:18:46.272Z,40.1
2018-08-10T05:19:47.729Z,40.1
2018-08-10T05:20:49.175Z,40.6
2018-08-10T05:21:50.620Z,40.1
2018-08-10T05:22:52.313Z,39.6
2018-08-10T05:23:53.997Z,39.6
2018-08-10T05:24:55.477Z,39.6
2018-08-10T05:25:57.605Z,39.1
2018-08-10T05:26:59.159Z,39.6
2018-08-10T05:28:00.607Z,39.6
2018-08-10T05:29:02.055Z,39.6
2018-08-10T05:30:03.517Z,39.6
2018-08-10T05:31:05.200Z,39.6
2018-08-10T05:32:06.659Z,39.6
2018-08-10T05:33:08.112Z,39.6
2018-08-10T05:34:09.388Z,39.6
2018-08-10T05:35:10.837Z,39.1
2018-08-10T05:36:12.296Z,40.6
2018-08-10T05:37:13.753Z,40.1
2018-08-10T05:38:15.353Z,40.1
2018-08-10T05:39:17.054Z,40.1
2018-08-10T05:40:18.698Z,40.1
2018-08-10T05:41:20.352Z,40.6
2018-08-10T05:42:21.607Z,40.6
2018-08-10T05:43:23.222Z,41.5
2018-08-10T05:44:24.834Z,41.5
2018-08-10T05:45:26.476Z,41.5
2018-08-10T05:46:28.765Z,41.5
2018-08-10T05:47:30.852Z,41.5
2018-08-10T05:48:32.881Z,42
2018-08-10T05:49:34.722Z,42
2018-08-10T05:50:35.917Z,41.5
2018-08-10T05:51:37.401Z,41.1
2018-08-10T05:52:39.422Z,41.5
2018-08-10T05:53:41.551Z,41.5
2018-08-10T05:54:42.997Z,42
2018-08-10T05:55:44.266Z,43
2018-08-10T05:56:45.884Z,42
2018-08-10T05:57:46.816Z,41.5
2018-08-10T05:58:48.441Z,42
2018-08-10T05:59:50.060Z,42
2018-08-10T06:00:51.598Z,41.5
2018-08-10T06:01:53.041Z,41.5
2018-08-10T06:02:54.665Z,42
2018-08-10T06:03:56.977Z,42
2018-08-10T06:04:59.152Z,42
2018-08-10T06:06:00.799Z,42
2018-08-10T06:07:02.461Z,42
2018-08-10T06:08:03.910Z,43
2018-08-10T06:09:05.360Z,41.5
2018-08-10T06:10:06.977Z,43
2018-08-10T06:11:08.416Z,41.5
2018-08-10T06:12:10.044Z,41.5
2018-08-10T06:13:11.891Z,42
2018-08-10T06:14:13.350Z,42
2018-08-10T06:15:14.955Z,41.5
2018-08-10T06:16:16.386Z,41.5
2018-08-10T06:17:17.994Z,42
2018-08-10T06:18:19.631Z,41.5
2018-08-10T06:19:21.112Z,41.5
2018-08-10T06:20:22.860Z,41.5
2018-08-10T06:21:24.453Z,42
2018-08-10T06:22:25.901Z,41.1
2018-08-10T06:23:27.506Z,41.5
2018-08-10T06:24:29.110Z,41.5
2018-08-10T06:25:30.560Z,41.1
2018-08-10T06:26:32.359Z,41.1
2018-08-10T06:27:33.794Z,41.1
2018-08-10T06:28:35.410Z,40.6
2018-08-10T06:29:37.040Z,41.1
2018-08-10T06:30:38.651Z,41.5
2018-08-10T06:31:40.231Z,41.1
2018-08-10T06:32:41.859Z,41.1
2018-08-10T06:33:43.460Z,40.6
2018-08-10T06:34:45.177Z,41.1
2018-08-10T06:35:46.795Z,40.6
2018-08-10T06:36:48.403Z,40.6
2018-08-10T06:37:49.848Z,40.6
2018-08-10T06:38:51.456Z,41.1
2018-08-10T06:39:53.212Z,40.6
2018-08-10T06:40:55.184Z,40.6
2018-08-10T06:41:56.659Z,41.5
2018-08-10T06:42:58.265Z,41.1
2018-08-10T06:43:59.867Z,40.1
2018-08-10T06:45:02.286Z,40.6
2018-08-10T06:46:04.523Z,40.6
2018-08-10T06:47:05.958Z,40.1
2018-08-10T06:48:07.434Z,40.6
2018-08-10T06:49:09.054Z,40.1
2018-08-10T06:50:10.851Z,41.1
2018-08-10T06:51:12.485Z,41.1
2018-08-10T06:52:14.460Z,40.1
2018-08-10T06:53:16.273Z,40.1
2018-08-10T06:54:17.889Z,41.1
2018-08-10T06:55:19.332Z,41.1
2018-08-10T06:56:20.964Z,40.1
2018-08-10T06:57:22.592Z,40.6
2018-08-10T06:58:24.206Z,40.6
2018-08-10T06:59:25.674Z,41.1
2018-08-10T07:00:27.083Z,40.6
2018-08-10T07:01:29.271Z,40.1
2018-08-10T07:02:31.317Z,40.6
2018-08-10T07:03:32.788Z,40.1
2018-08-10T07:04:34.396Z,40.1
2018-08-10T07:05:35.836Z,39.6
2018-08-10T07:06:37.267Z,40.1
2018-08-10T07:07:39.686Z,40.1
2018-08-10T07:08:42.014Z,40.1
2018-08-10T07:09:43.658Z,40.1
2018-08-10T07:10:45.103Z,40.1
2018-08-10T07:11:46.730Z,40.6
2018-08-10T07:12:48.319Z,40.1
2018-08-10T07:13:49.963Z,39.6
2018-08-10T07:14:51.576Z,39.6
2018-08-10T07:15:53.375Z,40.6
2018-08-10T07:16:55.027Z,39.6
2018-08-10T07:17:56.693Z,39.6
2018-08-10T07:18:58.323Z,39.6
2018-08-10T07:19:59.930Z,40.1
2018-08-10T07:21:01.541Z,39.6
2018-08-10T07:22:03.158Z,40.1
2018-08-10T07:23:04.763Z,39.6
2018-08-10T07:24:06.388Z,40.1
2018-08-10T07:25:08.014Z,40.1
2018-08-10T07:26:09.658Z,39.6
2018-08-10T07:27:11.636Z,40.1
2018-08-10T07:28:13.855Z,39.6
2018-08-10T07:29:15.390Z,39.6
2018-08-10T07:30:17.037Z,39.6
2018-08-10T07:31:18.487Z,39.6
2018-08-10T07:32:20.094Z,39.6
2018-08-10T07:33:21.697Z,40.6
2018-08-10T07:34:23.125Z,40.6
2018-08-10T07:35:24.749Z,39.6
2018-08-10T07:36:26.211Z,40.6
2018-08-10T07:37:27.814Z,40.6
2018-08-10T07:38:29.750Z,40.6
2018-08-10T07:39:31.135Z,41.1
2018-08-10T07:40:32.730Z,40.6
2018-08-10T07:41:34.349Z,41.1
2018-08-10T07:42:35.793Z,41.1
2018-08-10T07:43:37.221Z,41.1
2018-08-10T07:44:38.505Z,40.6
2018-08-10T07:45:39.766Z,42
2018-08-10T07:46:41.206Z,42
2018-08-10T07:47:42.689Z,41.1
2018-08-10T07:48:43.987Z,41.1
2018-08-10T07:49:45.656Z,42
2018-08-10T07:50:47.090Z,41.5
2018-08-10T07:51:48.707Z,42
2018-08-10T07:52:50.161Z,42
2018-08-10T07:53:51.602Z,42
2018-08-10T07:54:53.057Z,41.5
2018-08-10T07:55:54.649Z,41.5
2018-08-10T07:56:55.944Z,42
2018-08-10T07:57:57.547Z,41.1
2018-08-10T07:58:59.304Z,42
2018-08-10T08:00:01.080Z,41.5
2018-08-10T08:01:02.705Z,42
2018-08-10T08:02:04.322Z,41.5
2018-08-10T08:03:05.881Z,42
2018-08-10T08:04:07.550Z,41.5
2018-08-10T08:05:09.142Z,42
2018-08-10T08:06:11.037Z,41.5
2018-08-10T08:07:12.417Z,41.1
2018-08-10T08:08:13.853Z,41.5
2018-08-10T08:09:15.120Z,41.5
2018-08-10T08:10:16.729Z,42
2018-08-10T08:11:18.161Z,42
2018-08-10T08:12:19.767Z,42
2018-08-10T08:13:21.213Z,41.5
2018-08-10T08:14:22.818Z,42
2018-08-10T08:15:24.428Z,41.1
2018-08-10T08:16:25.886Z,41.5
2018-08-10T08:17:27.522Z,41.1
2018-08-10T08:18:28.796Z,41.5
2018-08-10T08:19:30.838Z,42
2018-08-10T08:20:32.596Z,42
2018-08-10T08:21:34.028Z,41.5
2018-08-10T08:22:35.649Z,41.5
2018-08-10T08:23:37.248Z,40.6
2018-08-10T08:24:38.723Z,41.5
2018-08-10T08:25:40.317Z,41.5
2018-08-10T08:26:41.770Z,42
2018-08-10T08:27:43.387Z,41.1
2018-08-10T08:28:44.997Z,40.6
2018-08-10T08:29:46.617Z,40.1
2018-08-10T08:30:48.080Z,41.1
2018-08-10T08:31:49.513Z,41.1
2018-08-10T08:32:50.957Z,40.1
2018-08-10T08:33:52.394Z,41.1
2018-08-10T08:34:54.711Z,41.1
2018-08-10T08:35:56.466Z,41.1
2018-08-10T08:36:58.103Z,41.5
2018-08-10T08:38:00.163Z,40.1
2018-08-10T08:39:01.786Z,40.1
2018-08-10T08:40:03.227Z,40.1
2018-08-10T08:41:05.066Z,41.1
2018-08-10T08:42:06.459Z,41.1
2018-08-10T08:43:08.092Z,41.5
2018-08-10T08:44:09.692Z,40.6
2018-08-10T08:45:11.116Z,41.1
2018-08-10T08:46:14.051Z,41.1
2018-08-10T08:47:16.570Z,40.6
2018-08-10T08:48:32.527Z,41.1
2018-08-10T08:49:34.158Z,40.1
2018-08-10T08:50:35.635Z,40.1
2018-08-10T08:51:37.251Z,40.6
2018-08-10T08:52:38.865Z,40.1
2018-08-10T08:53:40.496Z,41.1
2018-08-10T08:54:42.182Z,40.6
2018-08-10T08:55:43.617Z,40.6
2018-08-10T08:56:45.061Z,39.1
2018-08-10T08:57:46.722Z,40.6
2018-08-10T08:58:48.323Z,40.6
2018-08-10T08:59:50.040Z,40.6
2018-08-10T09:00:51.520Z,40.6
2018-08-10T09:01:52.961Z,41.1
2018-08-10T09:02:54.399Z,40.1
2018-08-10T09:03:56.027Z,40.1
2018-08-10T09:04:57.636Z,40.1
2018-08-10T09:05:59.088Z,40.1
2018-08-10T09:07:00.548Z,40.1
2018-08-10T09:08:02.147Z,40.1
2018-08-10T09:09:03.755Z,39.6
2018-08-10T09:10:05.557Z,39.6
2018-08-10T09:11:07.350Z,40.1
2018-08-10T09:12:08.790Z,40.1
2018-08-10T09:13:10.428Z,40.1
2018-08-10T09:14:11.687Z,40.1
2018-08-10T09:15:13.295Z,40.1
2018-08-10T09:16:14.727Z,40.1
2018-08-10T09:17:17.047Z,39.6
2018-08-10T09:18:18.841Z,40.1
2018-08-10T09:19:20.306Z,40.1
2018-08-10T09:20:22.541Z,39.6
2018-08-10T09:21:24.537Z,39.1
2018-08-10T09:22:25.976Z,39.6
2018-08-10T09:23:28.347Z,39.6
2018-08-10T09:24:30.064Z,39.1
2018-08-10T09:25:31.683Z,40.1
2018-08-10T09:26:33.133Z,39.6
2018-08-10T09:27:34.597Z,40.1
2018-08-10T09:28:36.197Z,39.1
2018-08-10T09:29:37.466Z,40.1
2018-08-10T09:30:38.948Z,39.1
2018-08-10T09:31:40.400Z,39.6
2018-08-10T09:32:41.699Z,39.6
2018-08-10T09:33:43.308Z,40.6
2018-08-10T09:34:44.917Z,39.1
2018-08-10T09:35:46.535Z,40.1
2018-08-10T09:36:48.147Z,40.6
2018-08-10T09:37:49.429Z,40.6
2018-08-10T09:38:50.897Z,40.6
2018-08-10T09:39:52.512Z,40.1
2018-08-10T09:40:53.952Z,41.1
2018-08-10T09:41:55.566Z,41.5
2018-08-10T09:42:57.188Z,41.1
2018-08-10T09:43:58.828Z,41.1
2018-08-10T09:45:00.108Z,41.5
2018-08-10T09:46:01.565Z,41.1
2018-08-10T09:47:03.179Z,41.1
2018-08-10T09:48:04.631Z,41.5
2018-08-10T09:49:06.072Z,41.5
2018-08-10T09:50:07.531Z,41.5
2018-08-10T09:51:09.151Z,41.5
2018-08-10T09:52:10.610Z,40.6
2018-08-10T09:53:12.057Z,41.5
2018-08-10T09:54:13.698Z,41.5
2018-08-10T09:55:15.343Z,41.1
2018-08-10T09:56:16.995Z,41.5
2018-08-10T09:57:18.619Z,41.1
2018-08-10T09:58:20.236Z,41.5
2018-08-10T09:59:21.535Z,41.5
2018-08-10T10:00:23.120Z,41.5
2018-08-10T10:01:24.565Z,41.5
2018-08-10T10:02:25.991Z,41.5
2018-08-10T10:03:27.593Z,42
2018-08-10T10:04:29.225Z,42
2018-08-10T10:05:30.814Z,41.5
2018-08-10T10:06:32.183Z,41.5
2018-08-10T10:07:33.442Z,42
2018-08-10T10:08:34.913Z,41.5
2018-08-10T10:09:36.357Z,41.5
2018-08-10T10:10:37.853Z,41.1
2018-08-10T10:11:39.122Z,41.5
2018-08-10T10:12:40.216Z,41.5
2018-08-10T10:13:41.817Z,41.5
2018-08-10T10:14:43.252Z,42
2018-08-10T10:15:44.876Z,41.1
2018-08-10T10:16:46.310Z,41.1
2018-08-10T10:17:47.913Z,40.6
2018-08-10T10:18:49.344Z,41.1
2018-08-10T10:19:50.779Z,41.5
2018-08-10T10:20:52.343Z,41.1
2018-08-10T10:21:54.039Z,41.5
2018-08-10T10:22:55.712Z,41.5
2018-08-10T10:23:57.164Z,41.1
2018-08-10T10:24:58.449Z,41.1
2018-08-10T10:26:00.072Z,40.6
2018-08-10T10:27:01.509Z,41.5
2018-08-10T10:28:03.154Z,41.1
2018-08-10T10:29:04.604Z,40.6
2018-08-10T10:30:06.044Z,41.1
2018-08-10T10:31:07.488Z,40.6
2018-08-10T10:32:08.768Z,40.6
2018-08-10T10:33:10.249Z,40.6
2018-08-10T10:34:11.890Z,41.5
2018-08-10T10:35:13.497Z,40.1
2018-08-10T10:36:15.119Z,40.6
2018-08-10T10:37:16.741Z,40.1
2018-08-10T10:38:18.340Z,40.6
2018-08-10T10:39:19.794Z,40.6
2018-08-10T10:40:21.425Z,40.6
2018-08-10T10:41:22.895Z,41.5
2018-08-10T10:42:24.666Z,40.6
2018-08-10T10:43:26.282Z,39.6
2018-08-10T10:44:27.915Z,40.1
2018-08-10T10:45:29.563Z,40.6
2018-08-10T10:46:31.027Z,40.6
2018-08-10T10:47:32.630Z,40.6
2018-08-10T10:48:34.110Z,40.6
2018-08-10T10:49:35.563Z,40.1
2018-08-10T10:50:37.191Z,39.6
2018-08-10T10:51:38.911Z,40.6
2018-08-10T10:52:40.625Z,41.1
2018-08-10T10:53:42.134Z,39.6
2018-08-10T10:54:43.758Z,40.1
2018-08-10T10:55:45.205Z,40.6
2018-08-10T10:56:47.264Z,40.1
2018-08-10T10:57:49.374Z,40.6
2018-08-10T10:58:50.807Z,39.6
2018-08-10T10:59:52.423Z,40.1
2018-08-10T11:00:53.898Z,39.6
2018-08-10T11:01:55.361Z,40.6
2018-08-10T11:02:56.991Z,40.1
2018-08-10T11:03:58.597Z,39.6
2018-08-10T11:05:00.040Z,39.6
2018-08-10T11:06:01.656Z,39.6
2018-08-10T11:07:03.268Z,40.1
2018-08-10T11:08:04.727Z,39.6
2018-08-10T11:09:06.186Z,40.1
2018-08-10T11:10:07.789Z,39.6
2018-08-10T11:11:09.382Z,39.1
2018-08-10T11:12:10.658Z,39.6
2018-08-10T11:13:12.100Z,39.6
2018-08-10T11:14:13.727Z,39.6
2018-08-10T11:15:15.013Z,39.6
2018-08-10T11:16:16.644Z,40.6
2018-08-10T11:17:18.071Z,40.1
2018-08-10T11:18:19.502Z,39.6
2018-08-10T11:19:21.108Z,40.6
2018-08-10T11:20:22.728Z,40.1
2018-08-10T11:21:24.189Z,39.6
2018-08-10T11:22:25.304Z,39.6
2018-08-10T11:23:26.939Z,40.1
2018-08-10T11:24:28.535Z,40.1
2018-08-10T11:25:30.922Z,40.6
2018-08-10T11:26:32.588Z,40.1
2018-08-10T11:27:34.057Z,41.1
2018-08-10T11:28:35.654Z,41.1
2018-08-10T11:29:37.256Z,41.1
2018-08-10T11:30:38.863Z,41.5
2018-08-10T11:31:40.478Z,41.5
2018-08-10T11:32:41.914Z,41.1
2018-08-10T11:33:43.530Z,41.5
2018-08-10T11:34:45.131Z,42
2018-08-10T11:35:46.579Z,40.6
2018-08-10T11:36:48.187Z,41.1
2018-08-10T11:37:49.479Z,41.5
2018-08-10T11:38:51.083Z,41.5
2018-08-10T11:39:52.356Z,42
2018-08-10T11:40:53.812Z,42
2018-08-10T11:41:55.416Z,41.5
2018-08-10T11:42:57.094Z,41.5
2018-08-10T11:43:58.699Z,42
2018-08-10T11:45:00.730Z,42
2018-08-10T11:46:02.413Z,41.5
2018-08-10T11:47:04.063Z,41.1
2018-08-10T11:48:05.672Z,42.5
2018-08-10T11:49:07.282Z,41.5
2018-08-10T11:50:09.290Z,41.5
2018-08-10T11:51:11.274Z,42
2018-08-10T11:52:12.904Z,41.5
2018-08-10T11:53:14.349Z,41.1
2018-08-10T11:54:15.970Z,42
2018-08-10T11:55:17.602Z,41.5
2018-08-10T11:56:19.058Z,42.5
2018-08-10T11:57:20.702Z,42
2018-08-10T11:58:22.476Z,41.5
2018-08-10T11:59:24.073Z,41.5
2018-08-10T12:00:25.698Z,42
2018-08-10T12:01:27.123Z,41.5
2018-08-10T12:02:28.747Z,42
2018-08-10T12:03:30.346Z,41.5
2018-08-10T12:04:31.788Z,41.1
2018-08-10T12:05:33.402Z,41.1
2018-08-10T12:06:34.734Z,42
2018-08-10T12:07:36.384Z,41.1
2018-08-10T12:08:38.011Z,41.5
2018-08-10T12:09:39.477Z,41.1
2018-08-10T12:10:41.101Z,41.5
2018-08-10T12:11:42.708Z,41.5
2018-08-10T12:12:44.462Z,41.1
2018-08-10T12:13:46.080Z,41.5
2018-08-10T12:14:47.528Z,40.6
2018-08-10T12:15:49.143Z,40.6
2018-08-10T12:16:50.598Z,41.1
2018-08-10T12:17:52.224Z,40.6
2018-08-10T12:18:53.882Z,40.6
2018-08-10T12:19:55.561Z,40.6
2018-08-10T12:20:57.185Z,41.5
2018-08-10T12:21:58.629Z,41.1
2018-08-10T12:23:00.225Z,41.1
2018-08-10T12:24:01.835Z,41.1
2018-08-10T12:25:03.655Z,41.1
2018-08-10T12:26:05.251Z,41.5
2018-08-10T12:27:06.856Z,41.1
2018-08-10T12:28:08.303Z,40.6
2018-08-10T12:29:09.568Z,40.6
2018-08-10T12:30:11.406Z,41.1
2018-08-10T12:32:29.420Z,41.1
2018-08-10T12:33:30.853Z,40.6
2018-08-10T12:34:32.291Z,40.1
2018-08-10T12:35:34.095Z,40.6
2018-08-10T12:36:35.757Z,40.1
2018-08-10T12:37:37.046Z,40.6
2018-08-10T12:38:38.648Z,40.6
2018-08-10T12:39:40.092Z,40.1
2018-08-10T12:40:41.705Z,40.1
2018-08-10T12:41:43.342Z,40.1
2018-08-10T12:42:44.453Z,40.6
2018-08-10T12:43:45.903Z,40.1
2018-08-10T12:44:47.333Z,40.1
2018-08-10T12:45:49.095Z,40.1
2018-08-10T12:46:50.580Z,40.6
2018-08-10T12:47:52.424Z,39.6
2018-08-10T12:48:54.056Z,40.6
2018-08-10T12:49:55.649Z,39.6
2018-08-10T12:50:57.249Z,39.6
2018-08-10T12:51:58.857Z,40.6
2018-08-10T12:53:00.191Z,40.1
2018-08-10T12:54:01.831Z,39.6
2018-08-10T12:55:03.581Z,40.1
2018-08-10T12:56:05.074Z,40.1
2018-08-10T12:57:07.280Z,40.6
2018-08-10T12:58:09.520Z,40.1
2018-08-10T12:59:10.992Z,39.6
2018-08-10T13:00:12.509Z,39.6
2018-08-10T13:01:14.104Z,40.1
2018-08-10T13:02:15.590Z,40.1
2018-08-10T13:03:17.697Z,39.1
2018-08-10T13:04:19.553Z,40.1
2018-08-10T13:05:21.047Z,40.6
2018-08-10T13:06:22.547Z,40.1
2018-08-10T13:07:24.178Z,39.6
2018-08-10T13:08:26.137Z,39.6
2018-08-10T13:09:27.755Z,40.1
2018-08-10T13:10:29.388Z,40.1
2018-08-10T13:11:31.166Z,40.1
2018-08-10T13:12:32.637Z,40.1
2018-08-10T13:13:34.282Z,40.6
2018-08-10T13:14:35.905Z,40.6
2018-08-10T13:15:37.510Z,40.1
2018-08-10T13:16:39.147Z,40.1
2018-08-10T13:17:40.443Z,41.1
2018-08-10T13:18:42.067Z,41.1
2018-08-10T13:19:43.674Z,40.6
2018-08-10T13:20:45.107Z,41.5
2018-08-10T13:21:46.548Z,40.6
2018-08-10T13:22:48.170Z,41.5
2018-08-10T13:23:49.950Z,41.5
2018-08-10T13:24:51.768Z,41.1
2018-08-10T13:25:53.228Z,41.5
2018-08-10T13:26:54.686Z,41.5
2018-08-10T13:27:55.975Z,41.5
2018-08-10T13:28:57.417Z,41.1
2018-08-10T13:29:58.534Z,42.5
2018-08-10T13:30:59.976Z,41.5
2018-08-10T13:32:01.626Z,41.5
2018-08-10T13:33:03.089Z,42
2018-08-10T13:34:04.646Z,42.5
2018-08-10T13:35:06.268Z,42
2018-08-10T13:36:07.890Z,41.5
2018-08-10T13:37:09.557Z,42.5
2018-08-10T13:38:11.153Z,41.5
2018-08-10T13:39:12.807Z,41.5
2018-08-10T13:40:14.433Z,41.5
2018-08-10T13:41:15.900Z,41.5
2018-08-10T13:42:18.110Z,41.5
2018-08-10T13:43:19.873Z,41.5
2018-08-10T13:44:21.500Z,41.5
2018-08-10T13:45:22.778Z,41.5
2018-08-10T13:46:24.555Z,41.5
2018-08-10T13:47:26.198Z,41.5